createdAt,value
2019-03-01T00:01:41.962Z,54.18
2019-03-01T00:04:23.444Z,49.13
2019-03-01T00:07:38.518Z,57.65
2019-03-01T00:10:24.546Z,50.30
2019-03-01T00:13:46.659Z,47.38
2019-03-01T00:16:40.996Z,57.75
2019-03-01T00:19:58.727Z,51.98
2019-03-01T00:23:01.530Z,48.92
2019-03-01T00:25:56.667Z,56.05
2019-03-01T00:28:58.255Z,51.85
2019-03-01T00:32:02.603Z,52.03
2019-03-01T00:35:07.807Z,48.40
2019-03-01T00:38:23.300Z,49.83
2019-03-01T00:41:20.111Z,48.68
2019-03-01T00:44:17.083Z,52.88
2019-03-01T00:46:49.700Z,48.25
2019-03-01T00:49:21.408Z,49.93
2019-03-01T00:51:52.963Z,47.17
2019-03-01T00:54:24.647Z,47.48
2019-03-01T00:57:07.031Z,50.00
2019-03-01T00:59:39.823Z,47.53
2019-03-01T01:02:11.432Z,44.70
2019-03-01T01:04:43.138Z,46.70
2019-03-01T01:07:15.843Z,49.03
2019-03-01T01:09:48.103Z,43.25
2019-03-01T01:12:19.551Z,46.42
2019-03-01T01:14:51.284Z,41.58
2019-03-01T01:17:22.851Z,49.67
2019-03-01T01:19:54.415Z,73.80
2019-03-01T01:22:25.867Z,63.70
2019-03-01T01:24:57.706Z,63.35
2019-03-01T01:27:29.251Z,59.55
2019-03-01T01:30:00.954Z,66.70
2019-03-01T01:32:32.643Z,58.87
2019-03-01T01:35:04.860Z,54.45
2019-03-01T01:37:36.476Z,59.80
2019-03-01T01:40:10.219Z,46.37
2019-03-01T01:42:41.894Z,53.33
2019-03-01T01:45:14.846Z,50.30
2019-03-01T01:47:46.494Z,43.63
2019-03-01T01:50:18.255Z,46.55
2019-03-01T01:52:49.691Z,45.38
2019-03-01T01:55:22.456Z,49.08
2019-03-01T01:57:54.094Z,49.95
2019-03-01T02:00:25.963Z,47.25
2019-03-01T02:02:57.583Z,47.17
2019-03-01T02:05:29.828Z,45.63
2019-03-01T02:08:01.487Z,43.55
2019-03-01T02:10:34.257Z,46.65
2019-03-01T02:13:05.849Z,47.25
2019-03-01T02:15:37.478Z,48.20
2019-03-01T02:18:09.033Z,46.63
2019-03-01T02:20:42.432Z,47.95
2019-03-01T02:23:14.178Z,51.68
2019-03-01T02:25:46.175Z,49.75
2019-03-01T02:28:17.803Z,46.55
2019-03-01T02:30:50.058Z,47.75
2019-03-01T02:33:21.695Z,49.38
2019-03-01T02:36:04.131Z,52.88
2019-03-01T02:38:35.670Z,46.83
2019-03-01T02:41:07.328Z,64.92
2019-03-01T02:43:39.018Z,56.58
2019-03-01T02:46:10.576Z,58.92
2019-03-01T02:48:42.201Z,57.48
2019-03-01T02:51:13.875Z,52.40
2019-03-01T02:53:45.506Z,56.75
2019-03-01T02:56:18.357Z,58.60
2019-03-01T02:58:49.898Z,71.60
2019-03-01T03:01:21.502Z,74.67
2019-03-01T03:03:53.040Z,75.67
2019-03-01T03:06:42.520Z,80.40
2019-03-01T03:09:14.890Z,75.60
2019-03-01T03:11:46.556Z,78.83
2019-03-01T03:14:18.151Z,71.35
2019-03-01T03:16:49.878Z,73.07
2019-03-01T03:19:21.438Z,72.05
2019-03-01T03:21:53.068Z,68.62
2019-03-01T03:24:24.472Z,60.20
2019-03-01T03:26:56.046Z,56.35
2019-03-01T03:29:28.780Z,53.08
2019-03-01T03:32:00.457Z,67.47
2019-03-01T03:34:32.029Z,59.70
2019-03-01T03:37:03.519Z,68.45
2019-03-01T03:39:34.926Z,62.03
2019-03-01T03:42:06.644Z,53.48
2019-03-01T03:44:39.018Z,60.65
2019-03-01T03:47:10.790Z,55.52
2019-03-01T03:49:42.588Z,51.53
2019-03-01T03:52:14.183Z,55.73
2019-03-01T03:54:45.882Z,68.37
2019-03-01T03:57:17.698Z,59.27
2019-03-01T03:59:50.578Z,75.03
2019-03-01T04:02:23.421Z,70.62
2019-03-01T04:04:55.078Z,75.08
2019-03-01T04:07:28.238Z,72.53
2019-03-01T04:10:00.866Z,59.75
2019-03-01T04:12:32.719Z,62.15
2019-03-01T04:15:05.357Z,55.10
2019-03-01T04:17:37.151Z,67.97
2019-03-01T04:20:10.665Z,80.40
2019-03-01T04:22:42.190Z,69.05
2019-03-01T04:25:13.834Z,84.83
2019-03-01T04:27:45.462Z,128.07
2019-03-01T04:30:17.723Z,100.27
2019-03-01T04:32:49.400Z,97.00
2019-03-01T04:35:21.134Z,89.80
2019-03-01T04:37:53.064Z,94.72
2019-03-01T04:40:25.103Z,86.20
2019-03-01T04:43:15.459Z,112.00
2019-03-01T04:45:47.109Z,69.12
2019-03-01T04:48:19.972Z,81.67
2019-03-01T04:50:51.737Z,74.03
2019-03-01T04:53:24.698Z,65.45
2019-03-01T04:55:56.294Z,71.35
2019-03-01T04:58:27.833Z,70.95
2019-03-01T05:00:59.487Z,110.03
2019-03-01T05:03:31.997Z,73.22
2019-03-01T05:06:03.667Z,92.90
2019-03-01T05:08:36.128Z,132.45
2019-03-01T05:11:07.759Z,107.22
2019-03-01T05:13:39.872Z,88.78
2019-03-01T05:16:11.673Z,113.10
2019-03-01T05:18:43.921Z,100.07
2019-03-01T05:21:16.649Z,108.52
2019-03-01T05:23:48.244Z,91.28
2019-03-01T05:26:19.907Z,71.75
2019-03-01T05:28:51.539Z,55.85
2019-03-01T05:31:23.243Z,49.03
2019-03-01T05:33:55.439Z,53.10
2019-03-01T05:36:28.044Z,54.67
2019-03-01T05:38:59.748Z,63.30
2019-03-01T05:41:33.021Z,48.52
2019-03-01T05:44:15.333Z,46.40
2019-03-01T05:46:47.109Z,56.18
2019-03-01T05:49:18.806Z,49.42
2019-03-01T05:51:50.656Z,64.25
2019-03-01T05:54:22.344Z,65.52
2019-03-01T05:56:54.027Z,51.73
2019-03-01T05:59:27.459Z,45.48
2019-03-01T06:02:31.048Z,50.43
2019-03-01T06:05:06.751Z,55.58
2019-03-01T06:08:20.618Z,53.53
2019-03-01T06:11:09.931Z,54.27
2019-03-01T06:14:24.993Z,42.67
2019-03-01T06:18:01.455Z,41.80
2019-03-01T06:20:56.878Z,45.60
2019-03-01T06:23:57.841Z,48.83
2019-03-01T06:26:48.501Z,41.70
2019-03-01T06:29:54.585Z,42.30
2019-03-01T06:32:59.488Z,81.17
2019-03-01T06:36:06.050Z,57.00
2019-03-01T06:39:45.575Z,55.47
2019-03-01T06:43:00.345Z,47.67
2019-03-01T06:46:24.799Z,52.73
2019-03-01T06:49:00.320Z,66.33
2019-03-01T06:51:34.639Z,112.03
2019-03-01T06:54:06.374Z,50.57
2019-03-01T06:56:37.968Z,54.73
2019-03-01T06:59:09.775Z,40.30
2019-03-01T07:01:48.197Z,60.20
2019-03-01T07:04:20.239Z,59.67
2019-03-01T07:06:53.202Z,55.97
2019-03-01T07:09:24.726Z,69.97
2019-03-01T07:11:57.091Z,76.37
2019-03-01T07:14:28.831Z,89.43
2019-03-01T07:17:00.395Z,83.13
2019-03-01T07:19:50.804Z,68.40
2019-03-01T07:22:22.843Z,60.43
2019-03-01T07:24:54.733Z,72.67
2019-03-01T07:27:26.427Z,56.10
2019-03-01T07:29:58.853Z,73.37
2019-03-01T07:32:31.938Z,62.67
2019-03-01T07:35:03.872Z,149.47
2019-03-01T07:37:36.920Z,82.37
2019-03-01T07:40:08.900Z,63.93
2019-03-01T07:42:40.592Z,56.93
2019-03-01T07:45:12.368Z,97.50
2019-03-01T07:47:44.097Z,63.03
2019-03-01T07:50:15.872Z,63.83
2019-03-01T07:52:47.470Z,82.70
2019-03-01T07:55:19.260Z,53.50
2019-03-01T07:57:50.990Z,59.90
2019-03-01T08:00:22.574Z,58.57
2019-03-01T08:02:54.883Z,53.73
2019-03-01T08:05:26.578Z,42.13
2019-03-01T08:08:02.584Z,42.80
2019-03-01T08:10:31.480Z,51.40
2019-03-01T08:13:03.165Z,67.67
2019-03-01T08:15:34.815Z,65.57
2019-03-01T08:18:08.174Z,53.77
2019-03-01T08:20:40.135Z,66.13
2019-03-01T08:23:11.751Z,67.57
2019-03-01T08:25:43.426Z,49.13
2019-03-01T08:28:18.372Z,64.57
2019-03-01T08:30:49.568Z,58.77
2019-03-01T08:33:31.953Z,51.67
2019-03-01T08:36:05.820Z,57.27
2019-03-01T08:38:37.760Z,55.00
2019-03-01T08:41:10.440Z,80.50
2019-03-01T08:43:44.740Z,55.10
2019-03-01T08:46:15.504Z,58.30
2019-03-01T08:48:47.126Z,52.63
2019-03-01T08:51:18.761Z,51.23
2019-03-01T08:53:51.055Z,60.17
2019-03-01T08:56:26.046Z,53.87
2019-03-01T08:58:57.246Z,59.47
2019-03-01T09:01:28.974Z,53.23
2019-03-01T09:04:03.345Z,49.67
2019-03-01T09:06:34.995Z,79.87
2019-03-01T09:09:08.787Z,61.60
2019-03-01T09:11:44.711Z,61.73
2019-03-01T09:14:15.374Z,65.80
2019-03-01T09:16:47.154Z,70.00
2019-03-01T09:19:22.296Z,58.60
2019-03-01T09:21:53.318Z,53.17
2019-03-01T09:24:25.755Z,74.00
2019-03-01T09:26:58.547Z,62.30
2019-03-01T09:29:30.809Z,71.03
2019-03-01T09:32:02.421Z,72.67
2019-03-01T09:34:34.327Z,65.00
2019-03-01T09:37:05.972Z,71.90
2019-03-01T09:39:37.580Z,75.87
2019-03-01T09:42:12.348Z,78.40
2019-03-01T09:44:42.963Z,68.50
2019-03-01T09:47:14.618Z,71.30
2019-03-01T09:49:46.143Z,81.17
2019-03-01T09:52:20.369Z,67.90
2019-03-01T09:54:51.050Z,98.77
2019-03-01T09:57:33.622Z,70.77
2019-03-01T10:00:05.454Z,82.47
2019-03-01T10:02:37.492Z,81.20
2019-03-01T10:05:12.015Z,81.73
2019-03-01T10:07:43.567Z,79.93
2019-03-01T10:10:19.801Z,85.93
2019-03-01T10:12:51.362Z,133.03
2019-03-01T10:15:24.066Z,84.10
2019-03-01T10:17:55.697Z,76.63
2019-03-01T10:20:27.519Z,82.27
2019-03-01T10:22:59.095Z,77.57
2019-03-01T10:25:31.024Z,80.60
2019-03-01T10:28:21.289Z,73.23
2019-03-01T10:30:53.052Z,65.63
2019-03-01T10:33:24.725Z,73.00
2019-03-01T10:35:58.564Z,14.87
2019-03-01T10:38:31.687Z,9.73
2019-03-01T10:41:03.491Z,10.00
2019-03-01T10:43:35.142Z,6.70
2019-03-01T10:46:06.820Z,8.20
2019-03-01T10:48:41.082Z,7.60
2019-03-01T10:51:13.736Z,13.90
2019-03-01T10:53:45.500Z,9.07
2019-03-01T10:56:18.148Z,12.60
2019-03-01T10:58:49.699Z,8.33
2019-03-01T11:01:21.419Z,7.17
2019-03-01T11:03:53.145Z,9.43
2019-03-01T11:06:24.907Z,10.77
2019-03-01T11:08:56.696Z,8.50
2019-03-01T11:11:28.399Z,10.20
2019-03-01T11:13:59.963Z,5.53
2019-03-01T11:16:31.615Z,9.00
2019-03-01T11:19:04.113Z,10.47
2019-03-01T11:21:35.746Z,9.67
2019-03-01T11:24:07.189Z,8.77
2019-03-01T11:26:40.079Z,6.63
2019-03-01T11:29:11.692Z,11.43
2019-03-01T11:31:44.397Z,10.60
2019-03-01T11:34:16.977Z,7.93
2019-03-01T11:36:48.682Z,11.70
2019-03-01T11:39:20.761Z,7.03
2019-03-01T11:41:52.602Z,8.70
2019-03-01T11:44:23.984Z,11.70
2019-03-01T11:46:56.255Z,8.60
2019-03-01T11:49:28.899Z,8.03
2019-03-01T11:52:00.399Z,11.20
2019-03-01T11:54:32.162Z,12.53
2019-03-01T11:57:03.906Z,9.73
2019-03-01T11:59:35.777Z,8.70
2019-03-01T12:02:08.130Z,9.63
2019-03-01T12:04:39.936Z,8.50
2019-03-01T12:07:11.649Z,10.00
2019-03-01T12:09:43.320Z,8.10
2019-03-01T12:12:15.958Z,8.73
2019-03-01T12:14:47.609Z,9.67
2019-03-01T12:17:19.845Z,10.13
2019-03-01T12:19:51.627Z,11.53
2019-03-01T12:22:23.464Z,10.57
2019-03-01T12:24:55.160Z,11.73
2019-03-01T12:27:27.942Z,11.77
2019-03-01T12:29:59.711Z,8.87
2019-03-01T12:32:32.658Z,8.13
2019-03-01T12:35:04.400Z,16.27
2019-03-01T12:37:36.026Z,9.30
2019-03-01T12:40:08.921Z,8.17
2019-03-01T12:42:40.612Z,8.47
2019-03-01T12:45:13.560Z,8.90
2019-03-01T12:47:45.257Z,11.17
2019-03-01T12:50:17.181Z,8.00
2019-03-01T12:52:49.787Z,9.77
2019-03-01T12:55:23.289Z,11.33
2019-03-01T12:57:55.063Z,11.10
2019-03-01T13:00:30.769Z,13.07
2019-03-01T13:03:05.332Z,12.37
2019-03-01T13:05:36.804Z,14.20
2019-03-01T13:08:08.790Z,12.77
2019-03-01T13:10:41.450Z,9.93
2019-03-01T13:13:13.374Z,13.83
2019-03-01T13:15:48.377Z,10.00
2019-03-01T13:18:18.531Z,11.50
2019-03-01T13:21:01.607Z,18.00
2019-03-01T13:23:37.546Z,9.70
2019-03-01T13:26:07.970Z,12.83
2019-03-01T13:28:39.750Z,12.27
2019-03-01T13:31:12.332Z,10.63
2019-03-01T13:33:44.210Z,8.67
2019-03-01T13:36:15.925Z,11.73
2019-03-01T13:38:48.176Z,17.63
2019-03-01T13:41:20.538Z,11.70
2019-03-01T13:43:52.291Z,13.53
2019-03-01T13:46:26.399Z,9.07
2019-03-01T13:48:57.371Z,9.20
2019-03-01T13:51:29.150Z,14.20
2019-03-01T13:54:00.969Z,10.07
2019-03-01T13:56:32.824Z,11.60
2019-03-01T13:59:06.183Z,11.77
2019-03-01T14:01:37.954Z,9.90
2019-03-01T14:04:09.887Z,12.37
2019-03-01T14:06:41.661Z,10.37
2019-03-01T14:09:15.475Z,11.73
2019-03-01T14:11:48.096Z,12.80
2019-03-01T14:14:19.864Z,11.37
2019-03-01T14:16:52.232Z,12.00
2019-03-01T14:19:23.961Z,12.67
2019-03-01T14:21:57.133Z,11.17
2019-03-01T14:24:29.530Z,19.33
2019-03-01T14:27:03.303Z,15.13
2019-03-01T14:29:36.825Z,15.00
2019-03-01T14:32:08.497Z,18.67
2019-03-01T14:34:40.255Z,13.97
2019-03-01T14:37:11.813Z,14.30
2019-03-01T14:39:45.378Z,16.53
2019-03-01T14:42:16.908Z,25.47
2019-03-01T14:44:51.209Z,16.77
2019-03-01T14:47:22.877Z,23.80
2019-03-01T14:50:01.668Z,22.63
2019-03-01T14:52:34.357Z,18.70
2019-03-01T14:55:08.313Z,23.60
2019-03-01T14:57:47.053Z,18.07
2019-03-01T15:00:25.625Z,31.77
2019-03-01T15:03:27.871Z,32.90
2019-03-01T15:06:00.802Z,25.90
2019-03-01T15:08:32.729Z,21.27
2019-03-01T15:11:10.767Z,25.87
2019-03-01T15:13:42.979Z,23.23
2019-03-01T15:16:14.792Z,12.77
2019-03-01T15:18:46.489Z,16.73
2019-03-01T15:21:19.620Z,24.83
2019-03-01T15:23:52.349Z,22.37
2019-03-01T15:26:26.677Z,39.10
2019-03-01T15:28:58.891Z,45.53
2019-03-01T15:31:31.159Z,52.20
2019-03-01T15:34:03.035Z,43.13
2019-03-01T15:36:35.826Z,31.90
2019-03-01T15:39:08.534Z,27.37
2019-03-01T15:41:42.129Z,27.87
2019-03-01T15:44:13.985Z,27.13
2019-03-01T15:46:46.355Z,26.33
2019-03-01T15:49:23.510Z,29.80
2019-03-01T15:51:53.102Z,38.27
2019-03-01T15:54:24.810Z,34.80
2019-03-01T15:56:56.662Z,24.63
2019-03-01T15:59:28.407Z,24.93
2019-03-01T16:02:00.219Z,28.67
2019-03-01T16:04:33.708Z,33.70
2019-03-01T16:07:05.251Z,28.43
2019-03-01T16:09:37.550Z,35.10
2019-03-01T16:12:09.934Z,30.90
2019-03-01T16:14:41.602Z,33.67
2019-03-01T16:17:14.348Z,22.43
2019-03-01T16:19:46.952Z,30.27
2019-03-01T16:22:19.684Z,35.03
2019-03-01T16:24:51.979Z,35.23
2019-03-01T16:27:23.846Z,45.40
2019-03-01T16:29:56.270Z,46.80
2019-03-01T16:32:28.064Z,47.50
2019-03-01T16:34:59.896Z,51.30
2019-03-01T16:37:31.760Z,44.83
2019-03-01T16:40:05.435Z,49.63
2019-03-01T16:42:41.081Z,45.47
2019-03-01T16:45:12.795Z,54.27
2019-03-01T16:47:44.682Z,61.10
2019-03-01T16:50:22.601Z,51.53
2019-03-01T16:52:54.556Z,48.53
2019-03-01T16:55:27.804Z,46.33
2019-03-01T16:58:06.727Z,42.43
2019-03-01T17:00:33.407Z,46.50
2019-03-01T17:03:06.847Z,37.20
2019-03-01T17:05:39.737Z,33.33
2019-03-01T17:08:11.883Z,35.07
2019-03-01T17:10:45.604Z,24.87
2019-03-01T17:13:17.903Z,25.67
2019-03-01T17:15:57.930Z,26.57
2019-03-01T17:18:30.659Z,28.17
2019-03-01T17:21:16.589Z,30.67
2019-03-01T17:23:48.335Z,35.13
2019-03-01T17:26:21.237Z,40.47
2019-03-01T17:28:53.989Z,36.40
2019-03-01T17:31:26.860Z,36.83
2019-03-01T17:33:59.214Z,36.67
2019-03-01T17:36:31.269Z,44.67
2019-03-01T17:39:03.084Z,38.43
2019-03-01T17:41:37.471Z,54.73
2019-03-01T17:44:09.611Z,60.13
2019-03-01T17:46:42.381Z,99.17
2019-03-01T17:49:14.189Z,90.07
2019-03-01T17:51:45.977Z,139.33
2019-03-01T17:54:18.995Z,109.27
2019-03-01T17:56:54.053Z,107.43
2019-03-01T17:59:25.920Z,106.43
2019-03-01T18:01:57.553Z,112.03
2019-03-01T18:04:29.197Z,118.10
2019-03-01T18:07:00.865Z,134.97
2019-03-01T18:09:32.738Z,119.20
2019-03-01T18:12:05.464Z,132.10
2019-03-01T18:14:37.603Z,130.90
2019-03-01T18:17:09.510Z,124.33
2019-03-01T18:19:41.363Z,149.57
2019-03-01T18:22:13.334Z,143.73
2019-03-01T18:24:46.748Z,123.97
2019-03-01T18:27:18.825Z,137.13
2019-03-01T18:29:50.663Z,124.33
2019-03-01T18:32:23.698Z,151.60
2019-03-01T18:34:58.449Z,131.77
2019-03-01T18:37:32.433Z,155.57
2019-03-01T18:40:04.813Z,150.33
2019-03-01T18:42:38.059Z,157.83
2019-03-01T18:45:13.740Z,194.73
2019-03-01T18:47:45.849Z,163.03
2019-03-01T18:50:23.908Z,155.00
2019-03-01T18:52:56.130Z,154.70
2019-03-01T18:55:28.236Z,158.17
2019-03-01T18:58:00.107Z,166.40
2019-03-01T19:00:35.844Z,147.93
2019-03-01T19:03:07.805Z,166.60
2019-03-01T19:05:41.179Z,152.33
2019-03-01T19:08:13.027Z,169.20
2019-03-01T19:10:53.742Z,184.57
2019-03-01T19:13:20.852Z,169.80
2019-03-01T19:15:54.517Z,167.70
2019-03-01T19:18:26.482Z,179.03
2019-03-01T19:20:58.146Z,177.83
2019-03-01T19:23:32.407Z,164.40
2019-03-01T19:26:03.264Z,175.20
2019-03-01T19:28:34.945Z,174.03
2019-03-01T19:31:07.238Z,157.40
2019-03-01T19:33:41.470Z,163.10
2019-03-01T19:36:13.264Z,149.77
2019-03-01T19:38:46.393Z,143.77
2019-03-01T19:41:20.102Z,117.33
2019-03-01T19:43:57.438Z,124.53
2019-03-01T19:46:26.591Z,132.47
2019-03-01T19:48:58.535Z,116.63
2019-03-01T19:51:30.409Z,101.00
2019-03-01T19:54:02.132Z,117.90
2019-03-01T19:56:35.110Z,112.97
2019-03-01T19:59:07.021Z,123.20
2019-03-01T20:01:39.168Z,110.33
2019-03-01T20:04:11.152Z,110.80
2019-03-01T20:06:43.472Z,98.90
2019-03-01T20:09:16.317Z,81.55
2019-03-01T20:11:48.326Z,83.47
2019-03-01T20:14:20.179Z,74.67
2019-03-01T20:16:54.856Z,82.10
2019-03-01T20:19:24.967Z,102.03
2019-03-01T20:21:56.709Z,85.70
2019-03-01T20:24:28.314Z,84.58
2019-03-01T20:27:03.024Z,67.30
2019-03-01T20:29:33.333Z,73.75
2019-03-01T20:32:06.032Z,73.45
2019-03-01T20:34:37.980Z,73.97
2019-03-01T20:37:10.305Z,70.28
2019-03-01T20:39:41.863Z,77.73
2019-03-01T20:42:13.819Z,73.00
2019-03-01T20:44:45.396Z,80.40
2019-03-01T20:47:18.385Z,164.52
2019-03-01T20:49:50.758Z,142.03
2019-03-01T20:52:22.633Z,145.07
2019-03-01T20:54:54.237Z,107.32
2019-03-01T20:57:27.026Z,126.58
2019-03-01T20:59:58.769Z,122.35
2019-03-01T21:02:31.630Z,124.47
2019-03-01T21:05:04.290Z,151.27
2019-03-01T21:07:36.375Z,158.10
2019-03-01T21:10:12.577Z,155.27
2019-03-01T21:12:45.590Z,160.48
2019-03-01T21:15:18.480Z,154.75
2019-03-01T21:17:52.933Z,134.05
2019-03-01T21:20:23.580Z,126.05
2019-03-01T21:22:55.367Z,123.62
2019-03-01T21:25:26.828Z,110.37
2019-03-01T21:28:00.903Z,114.47
2019-03-01T21:30:31.659Z,103.47
2019-03-01T21:33:03.382Z,93.60
2019-03-01T21:35:34.939Z,79.60
2019-03-01T21:38:06.465Z,83.05
2019-03-01T21:40:38.039Z,75.65
2019-03-01T21:43:09.785Z,84.15
2019-03-01T21:45:41.470Z,72.97
2019-03-01T21:48:13.109Z,75.83
2019-03-01T21:50:44.665Z,79.37
2019-03-01T21:53:16.355Z,97.50
2019-03-01T21:55:47.891Z,101.53
2019-03-01T21:58:19.365Z,107.55
2019-03-01T22:00:53.274Z,107.32
2019-03-01T22:03:28.017Z,114.82
2019-03-01T22:05:58.850Z,101.85
2019-03-01T22:08:31.318Z,89.85
2019-03-01T22:11:02.761Z,106.00
2019-03-01T22:13:35.749Z,106.15
2019-03-01T22:16:08.261Z,94.40
2019-03-01T22:18:40.071Z,92.33
2019-03-01T22:21:11.546Z,84.77
2019-03-01T22:23:43.185Z,112.20
2019-03-01T22:26:15.986Z,78.37
2019-03-01T22:28:47.718Z,76.65
2019-03-01T22:31:19.400Z,73.30
2019-03-01T22:33:52.647Z,77.62
2019-03-01T22:36:24.689Z,82.33
2019-03-01T22:38:56.521Z,80.90
2019-03-01T22:41:28.096Z,79.20
2019-03-01T22:44:01.687Z,77.95
2019-03-01T22:46:33.129Z,93.90
2019-03-01T22:49:04.757Z,80.12
2019-03-01T22:51:36.516Z,74.80
2019-03-01T22:54:08.322Z,106.72
2019-03-01T22:56:39.984Z,98.70
2019-03-01T22:59:11.995Z,95.95
2019-03-01T23:01:46.247Z,96.72
2019-03-01T23:04:18.260Z,91.72
2019-03-01T23:06:51.472Z,91.10
2019-03-01T23:09:24.235Z,95.40
2019-03-01T23:11:57.492Z,109.55
2019-03-01T23:14:30.831Z,100.02
2019-03-01T23:17:02.335Z,102.35
2019-03-01T23:19:35.145Z,112.15
2019-03-01T23:22:07.633Z,115.62
2019-03-01T23:24:41.318Z,117.28
2019-03-01T23:27:13.069Z,121.85
2019-03-01T23:29:44.819Z,115.12
2019-03-01T23:32:16.781Z,111.52
2019-03-01T23:34:49.709Z,97.47
2019-03-01T23:37:21.238Z,80.42
2019-03-01T23:39:53.273Z,88.75
2019-03-01T23:42:24.830Z,79.47
2019-03-01T23:44:56.483Z,65.67
2019-03-01T23:47:28.100Z,63.75
2019-03-01T23:50:00.526Z,69.03
2019-03-01T23:52:33.494Z,69.55
2019-03-01T23:55:05.421Z,76.02
2019-03-01T23:57:38.009Z,104.20
